EDDC/DRS METAR and TAF weather

Enter ICAO airport designator
Station Type Date Time Source
EDDC METAR 2021/07/29 18:50 UTC NOAA

EDDC 291850Z 25004KT CAVOK 21/09 Q1012 NOSIG


Station Type Date Time Source
EDDC Decoded METAR 2021/07/29 18:50 UTC NOAA

Dresden-Klotzsche, Germany (EDDC) 51-08N 013-45E 232M
Jul 29, 2021 - 02:50 PM EDT / 2021.07.29 1850 UTC
Wind: from the WSW (250 degrees) at 5 MPH (4 KT):0
Visibility: greater than 7 mile(s):0
Temperature: 69 F (21 C)
Dew Point: 48 F (9 C)
Relative Humidity: 46%
Pressure (altimeter): 29.88 in. Hg (1012 hPa)
ob: EDDC 291850Z 25004KT CAVOK 21/09 Q1012 NOSIG
cycle: 19

Station Type Date Time Source
EDDC TAF 2021/07/29 18:27 UTC NOAA

TAF EDDC 291700Z 2918/3018 24007KT CAVOK

Example: see airport list